sensor_id;sensor_type;location;lat;lon;timestamp;temperature;humidity
33328;DHT22;19692;52.998;9.116;2023-08-21T00:01:22;16.90;99.90
33328;DHT22;19692;52.998;9.116;2023-08-21T00:03:48;16.80;99.90
33328;DHT22;19692;52.998;9.116;2023-08-21T00:06:14;16.70;99.90
33328;DHT22;19692;52.998;9.116;2023-08-21T00:08:40;16.60;99.90
33328;DHT22;19692;52.998;9.116;2023-08-21T00:11:05;16.60;99.90
33328;DHT22;19692;52.998;9.116;2023-08-21T00:13:31;16.60;99.90
33328;DHT22;19692;52.998;9.116;2023-08-21T00:15:57;16.70;99.90
33328;DHT22;19692;52.998;9.116;2023-08-21T00:18:22;16.60;99.90
33328;DHT22;19692;52.998;9.116;2023-08-21T00:20:48;16.50;99.90
33328;DHT22;19692;52.998;9.116;2023-08-21T00:23:14;16.40;99.90
33328;DHT22;19692;52.998;9.116;2023-08-21T00:25:40;16.30;99.90
33328;DHT22;19692;52.998;9.116;2023-08-21T00:28:05;16.20;99.90
33328;DHT22;19692;52.998;9.116;2023-08-21T00:30:31;16.20;99.90
33328;DHT22;19692;52.998;9.116;2023-08-21T00:32:57;16.10;99.90
33328;DHT22;19692;52.998;9.116;2023-08-21T00:35:23;16.10;99.90
33328;DHT22;19692;52.998;9.116;2023-08-21T00:37:48;16.20;99.90
33328;DHT22;19692;52.998;9.116;2023-08-21T00:40:14;16.20;99.90
33328;DHT22;19692;52.998;9.116;2023-08-21T00:42:40;16.20;99.90
33328;DHT22;19692;52.998;9.116;2023-08-21T00:45:06;16.10;99.90
33328;DHT22;19692;52.998;9.116;2023-08-21T00:47:34;16.00;99.90
33328;DHT22;19692;52.998;9.116;2023-08-21T00:50:01;16.10;99.90
33328;DHT22;19692;52.998;9.116;2023-08-21T00:52:27;16.20;99.90
33328;DHT22;19692;52.998;9.116;2023-08-21T00:54:54;16.20;99.90
33328;DHT22;19692;52.998;9.116;2023-08-21T00:57:20;16.00;99.90
33328;DHT22;19692;52.998;9.116;2023-08-21T00:59:47;15.90;99.90
33328;DHT22;19692;52.998;9.116;2023-08-21T01:02:13;15.80;99.90
33328;DHT22;19692;52.998;9.116;2023-08-21T01:04:39;15.80;99.90
33328;DHT22;19692;52.998;9.116;2023-08-21T01:07:04;15.70;99.90
33328;DHT22;19692;52.998;9.116;2023-08-21T01:09:54;15.80;99.90
33328;DHT22;19692;52.998;9.116;2023-08-21T01:12:46;15.90;99.90
33328;DHT22;19692;52.998;9.116;2023-08-21T01:15:15;16.10;99.90
33328;DHT22;19692;52.998;9.116;2023-08-21T01:17:42;16.20;99.90
33328;DHT22;19692;52.998;9.116;2023-08-21T01:20:09;16.20;99.90
33328;DHT22;19692;52.998;9.116;2023-08-21T01:22:39;16.40;99.90
33328;DHT22;19692;52.998;9.116;2023-08-21T01:25:07;16.50;99.90
33328;DHT22;19692;52.998;9.116;2023-08-21T01:27:34;16.50;99.90
33328;DHT22;19692;52.998;9.116;2023-08-21T01:30:01;16.50;99.90
33328;DHT22;19692;52.998;9.116;2023-08-21T01:32:50;16.40;99.90
33328;DHT22;19692;52.998;9.116;2023-08-21T01:35:24;16.40;99.90
33328;DHT22;19692;52.998;9.116;2023-08-21T01:37:51;16.30;99.90
33328;DHT22;19692;52.998;9.116;2023-08-21T01:40:22;16.20;99.90
33328;DHT22;19692;52.998;9.116;2023-08-21T01:42:48;16.20;99.90
33328;DHT22;19692;52.998;9.116;2023-08-21T01:45:14;16.00;99.90
33328;DHT22;19692;52.998;9.116;2023-08-21T01:47:40;16.00;99.90
33328;DHT22;19692;52.998;9.116;2023-08-21T01:50:06;16.00;99.90
33328;DHT22;19692;52.998;9.116;2023-08-21T01:52:32;16.00;99.90
33328;DHT22;19692;52.998;9.116;2023-08-21T01:54:58;16.10;99.90
33328;DHT22;19692;52.998;9.116;2023-08-21T01:57:24;16.10;99.90
33328;DHT22;19692;52.998;9.116;2023-08-21T01:59:50;16.20;99.90
33328;DHT22;19692;52.998;9.116;2023-08-21T02:02:16;16.00;99.90
33328;DHT22;19692;52.998;9.116;2023-08-21T02:04:41;15.80;99.90
33328;DHT22;19692;52.998;9.116;2023-08-21T02:07:10;15.90;99.90
33328;DHT22;19692;52.998;9.116;2023-08-21T02:09:36;15.80;99.90
33328;DHT22;19692;52.998;9.116;2023-08-21T02:12:01;15.70;99.90
33328;DHT22;19692;52.998;9.116;2023-08-21T02:14:28;15.60;99.90
33328;DHT22;19692;52.998;9.116;2023-08-21T02:16:53;15.50;99.90
33328;DHT22;19692;52.998;9.116;2023-08-21T02:19:19;15.60;99.90
33328;DHT22;19692;52.998;9.116;2023-08-21T02:21:45;15.50;99.90
33328;DHT22;19692;52.998;9.116;2023-08-21T02:24:10;15.60;99.90
33328;DHT22;19692;52.998;9.116;2023-08-21T02:26:36;15.60;99.90
33328;DHT22;19692;52.998;9.116;2023-08-21T02:29:02;15.60;99.90
33328;DHT22;19692;52.998;9.116;2023-08-21T02:31:29;15.60;99.90
33328;DHT22;19692;52.998;9.116;2023-08-21T02:33:54;15.60;99.90
33328;DHT22;19692;52.998;9.116;2023-08-21T02:36:20;15.70;99.90
33328;DHT22;19692;52.998;9.116;2023-08-21T02:38:46;15.60;99.90
33328;DHT22;19692;52.998;9.116;2023-08-21T02:41:12;15.60;99.90
33328;DHT22;19692;52.998;9.116;2023-08-21T02:43:37;15.50;99.90
33328;DHT22;19692;52.998;9.116;2023-08-21T02:46:03;15.30;99.90
33328;DHT22;19692;52.998;9.116;2023-08-21T02:48:29;15.20;99.90
33328;DHT22;19692;52.998;9.116;2023-08-21T02:50:55;15.10;99.90
33328;DHT22;19692;52.998;9.116;2023-08-21T02:53:20;15.20;99.90
33328;DHT22;19692;52.998;9.116;2023-08-21T02:55:46;15.20;99.90
33328;DHT22;19692;52.998;9.116;2023-08-21T02:58:12;15.20;99.90
33328;DHT22;19692;52.998;9.116;2023-08-21T03:00:38;15.20;99.90
33328;DHT22;19692;52.998;9.116;2023-08-21T03:03:03;15.30;99.90
33328;DHT22;19692;52.998;9.116;2023-08-21T03:05:29;15.30;99.90
33328;DHT22;19692;52.998;9.116;2023-08-21T03:07:55;15.30;99.90
33328;DHT22;19692;52.998;9.116;2023-08-21T03:10:21;15.20;99.90
33328;DHT22;19692;52.998;9.116;2023-08-21T03:12:49;15.20;99.90
33328;DHT22;19692;52.998;9.116;2023-08-21T03:15:14;15.00;99.90
33328;DHT22;19692;52.998;9.116;2023-08-21T03:17:41;14.90;99.90
33328;DHT22;19692;52.998;9.116;2023-08-21T03:20:07;14.80;99.90
33328;DHT22;19692;52.998;9.116;2023-08-21T03:22:33;14.80;99.90
33328;DHT22;19692;52.998;9.116;2023-08-21T03:24:59;14.80;99.90
33328;DHT22;19692;52.998;9.116;2023-08-21T03:27:25;14.80;99.90
33328;DHT22;19692;52.998;9.116;2023-08-21T03:29:50;14.70;99.90
33328;DHT22;19692;52.998;9.116;2023-08-21T03:32:17;14.60;99.90
33328;DHT22;19692;52.998;9.116;2023-08-21T03:34:43;14.50;99.90
33328;DHT22;19692;52.998;9.116;2023-08-21T03:37:10;14.40;99.90
33328;DHT22;19692;52.998;9.116;2023-08-21T03:39:36;14.40;99.90
33328;DHT22;19692;52.998;9.116;2023-08-21T03:42:02;14.40;99.90
33328;DHT22;19692;52.998;9.116;2023-08-21T03:44:28;14.40;99.90
33328;DHT22;19692;52.998;9.116;2023-08-21T03:46:54;14.40;99.90
33328;DHT22;19692;52.998;9.116;2023-08-21T03:49:19;14.50;99.90
33328;DHT22;19692;52.998;9.116;2023-08-21T03:51:45;14.50;99.90
33328;DHT22;19692;52.998;9.116;2023-08-21T03:54:11;14.70;99.90
33328;DHT22;19692;52.998;9.116;2023-08-21T03:56:37;14.80;99.90
33328;DHT22;19692;52.998;9.116;2023-08-21T03:59:02;14.90;99.90
33328;DHT22;19692;52.998;9.116;2023-08-21T04:01:28;15.00;99.90
33328;DHT22;19692;52.998;9.116;2023-08-21T04:03:54;15.00;99.90
33328;DHT22;19692;52.998;9.116;2023-08-21T04:06:20;15.10;99.90
33328;DHT22;19692;52.998;9.116;2023-08-21T04:08:46;15.20;99.90
33328;DHT22;19692;52.998;9.116;2023-08-21T04:11:12;15.30;99.90
33328;DHT22;19692;52.998;9.116;2023-08-21T04:13:37;15.20;99.90
33328;DHT22;19692;52.998;9.116;2023-08-21T04:16:03;15.30;99.90
33328;DHT22;19692;52.998;9.116;2023-08-21T04:18:29;15.30;99.90
33328;DHT22;19692;52.998;9.116;2023-08-21T04:20:55;15.30;99.90
33328;DHT22;19692;52.998;9.116;2023-08-21T04:23:21;15.40;99.90
33328;DHT22;19692;52.998;9.116;2023-08-21T04:25:47;15.40;99.90
33328;DHT22;19692;52.998;9.116;2023-08-21T04:28:12;15.50;99.90
33328;DHT22;19692;52.998;9.116;2023-08-21T04:30:40;15.50;99.90
33328;DHT22;19692;52.998;9.116;2023-08-21T04:33:07;15.50;99.90
33328;DHT22;19692;52.998;9.116;2023-08-21T04:35:40;15.60;99.90
33328;DHT22;19692;52.998;9.116;2023-08-21T04:38:05;15.60;99.90
33328;DHT22;19692;52.998;9.116;2023-08-21T04:40:32;15.50;99.90
33328;DHT22;19692;52.998;9.116;2023-08-21T04:42:58;15.40;99.90
33328;DHT22;19692;52.998;9.116;2023-08-21T04:45:24;15.40;99.90
33328;DHT22;19692;52.998;9.116;2023-08-21T04:47:49;15.40;99.90
33328;DHT22;19692;52.998;9.116;2023-08-21T04:50:15;15.40;99.90
33328;DHT22;19692;52.998;9.116;2023-08-21T04:52:41;15.50;99.90
33328;DHT22;19692;52.998;9.116;2023-08-21T04:55:07;15.50;99.90
33328;DHT22;19692;52.998;9.116;2023-08-21T04:57:33;15.50;99.90
33328;DHT22;19692;52.998;9.116;2023-08-21T04:59:59;15.50;99.90
33328;DHT22;19692;52.998;9.116;2023-08-21T05:02:25;15.40;99.90
33328;DHT22;19692;52.998;9.116;2023-08-21T05:04:50;15.40;99.90
33328;DHT22;19692;52.998;9.116;2023-08-21T05:07:20;15.40;99.90
33328;DHT22;19692;52.998;9.116;2023-08-21T05:09:45;15.50;99.90
33328;DHT22;19692;52.998;9.116;2023-08-21T05:12:11;15.50;99.90
33328;DHT22;19692;52.998;9.116;2023-08-21T05:14:37;15.50;99.90
33328;DHT22;19692;52.998;9.116;2023-08-21T05:17:03;15.60;99.90
33328;DHT22;19692;52.998;9.116;2023-08-21T05:19:29;15.70;99.90
33328;DHT22;19692;52.998;9.116;2023-08-21T05:21:55;15.80;99.90
33328;DHT22;19692;52.998;9.116;2023-08-21T05:24:21;15.90;99.90
33328;DHT22;19692;52.998;9.116;2023-08-21T05:26:46;16.00;99.90
33328;DHT22;19692;52.998;9.116;2023-08-21T05:29:15;16.00;99.90
33328;DHT22;19692;52.998;9.116;2023-08-21T05:31:41;16.10;99.90
33328;DHT22;19692;52.998;9.116;2023-08-21T05:34:07;16.10;99.90
33328;DHT22;19692;52.998;9.116;2023-08-21T05:36:33;16.20;99.90
33328;DHT22;19692;52.998;9.116;2023-08-21T05:39:02;16.40;99.90
33328;DHT22;19692;52.998;9.116;2023-08-21T05:41:32;16.50;99.90
33328;DHT22;19692;52.998;9.116;2023-08-21T05:43:58;16.70;99.90
33328;DHT22;19692;52.998;9.116;2023-08-21T05:46:24;16.80;99.90
33328;DHT22;19692;52.998;9.116;2023-08-21T05:48:50;16.90;99.90
33328;DHT22;19692;52.998;9.116;2023-08-21T05:51:15;17.00;99.90
33328;DHT22;19692;52.998;9.116;2023-08-21T05:53:41;17.20;99.90
33328;DHT22;19692;52.998;9.116;2023-08-21T05:56:07;17.30;99.90
33328;DHT22;19692;52.998;9.116;2023-08-21T05:58:33;17.40;99.90
33328;DHT22;19692;52.998;9.116;2023-08-21T06:00:58;17.40;99.90
33328;DHT22;19692;52.998;9.116;2023-08-21T06:03:24;17.50;99.90
33328;DHT22;19692;52.998;9.116;2023-08-21T06:05:50;17.70;99.90
33328;DHT22;19692;52.998;9.116;2023-08-21T06:08:16;17.80;99.90
33328;DHT22;19692;52.998;9.116;2023-08-21T06:10:42;17.90;99.90
33328;DHT22;19692;52.998;9.116;2023-08-21T06:13:07;18.10;99.90
33328;DHT22;19692;52.998;9.116;2023-08-21T06:15:33;18.20;99.90
33328;DHT22;19692;52.998;9.116;2023-08-21T06:17:59;18.30;99.90
33328;DHT22;19692;52.998;9.116;2023-08-21T06:20:25;18.40;99.90
33328;DHT22;19692;52.998;9.116;2023-08-21T06:22:51;18.50;99.90
33328;DHT22;19692;52.998;9.116;2023-08-21T06:25:20;18.60;99.90
33328;DHT22;19692;52.998;9.116;2023-08-21T06:27:46;18.70;99.90
33328;DHT22;19692;52.998;9.116;2023-08-21T06:30:12;19.00;99.90
33328;DHT22;19692;52.998;9.116;2023-08-21T06:32:38;19.10;99.90
33328;DHT22;19692;52.998;9.116;2023-08-21T06:35:05;19.20;99.90
33328;DHT22;19692;52.998;9.116;2023-08-21T06:37:31;19.30;99.90
33328;DHT22;19692;52.998;9.116;2023-08-21T06:39:56;19.30;99.90
33328;DHT22;19692;52.998;9.116;2023-08-21T06:42:22;19.40;99.90
33328;DHT22;19692;52.998;9.116;2023-08-21T06:44:48;19.60;99.90
33328;DHT22;19692;52.998;9.116;2023-08-21T06:47:14;19.70;99.90
33328;DHT22;19692;52.998;9.116;2023-08-21T06:49:39;19.80;99.90
33328;DHT22;19692;52.998;9.116;2023-08-21T06:52:05;19.90;99.90
33328;DHT22;19692;52.998;9.116;2023-08-21T06:54:31;20.00;99.90
33328;DHT22;19692;52.998;9.116;2023-08-21T06:56:57;20.00;99.90
33328;DHT22;19692;52.998;9.116;2023-08-21T06:59:23;20.20;99.90
33328;DHT22;19692;52.998;9.116;2023-08-21T07:05:57;20.60;99.90
33328;DHT22;19692;52.998;9.116;2023-08-21T07:08:24;20.70;99.90
33328;DHT22;19692;52.998;9.116;2023-08-21T07:10:50;20.90;99.90
33328;DHT22;19692;52.998;9.116;2023-08-21T07:13:17;21.10;99.90
33328;DHT22;19692;52.998;9.116;2023-08-21T07:15:42;21.30;99.90
33328;DHT22;19692;52.998;9.116;2023-08-21T07:18:09;21.50;99.90
33328;DHT22;19692;52.998;9.116;2023-08-21T07:20:34;21.70;99.90
33328;DHT22;19692;52.998;9.116;2023-08-21T07:23:01;21.70;99.90
33328;DHT22;19692;52.998;9.116;2023-08-21T07:25:26;21.90;99.90
33328;DHT22;19692;52.998;9.116;2023-08-21T07:27:54;22.10;99.90
33328;DHT22;19692;52.998;9.116;2023-08-21T07:30:20;22.00;99.90
33328;DHT22;19692;52.998;9.116;2023-08-21T07:32:47;22.00;99.90
33328;DHT22;19692;52.998;9.116;2023-08-21T07:35:14;22.10;99.90
33328;DHT22;19692;52.998;9.116;2023-08-21T07:37:44;22.30;99.90
33328;DHT22;19692;52.998;9.116;2023-08-21T07:40:11;22.60;99.90
33328;DHT22;19692;52.998;9.116;2023-08-21T07:42:37;22.80;99.90
33328;DHT22;19692;52.998;9.116;2023-08-21T07:45:03;22.90;99.90
33328;DHT22;19692;52.998;9.116;2023-08-21T07:47:29;22.90;99.90
33328;DHT22;19692;52.998;9.116;2023-08-21T07:49:58;22.70;99.90
33328;DHT22;19692;52.998;9.116;2023-08-21T07:52:24;22.80;99.90
33328;DHT22;19692;52.998;9.116;2023-08-21T07:54:53;22.80;99.90
33328;DHT22;19692;52.998;9.116;2023-08-21T07:57:20;23.00;99.90
33328;DHT22;19692;52.998;9.116;2023-08-21T07:59:46;23.20;99.90
33328;DHT22;19692;52.998;9.116;2023-08-21T08:02:11;23.50;99.90
33328;DHT22;19692;52.998;9.116;2023-08-21T08:04:38;23.50;99.90
33328;DHT22;19692;52.998;9.116;2023-08-21T08:07:04;23.80;99.90
33328;DHT22;19692;52.998;9.116;2023-08-21T08:09:30;24.00;99.90
33328;DHT22;19692;52.998;9.116;2023-08-21T08:11:56;24.20;99.90
33328;DHT22;19692;52.998;9.116;2023-08-21T08:14:22;24.40;99.90
33328;DHT22;19692;52.998;9.116;2023-08-21T08:16:47;24.40;99.90
33328;DHT22;19692;52.998;9.116;2023-08-21T08:19:13;24.50;99.90
33328;DHT22;19692;52.998;9.116;2023-08-21T08:21:39;24.40;99.90
33328;DHT22;19692;52.998;9.116;2023-08-21T08:24:05;24.30;99.90
33328;DHT22;19692;52.998;9.116;2023-08-21T08:26:31;24.30;99.90
33328;DHT22;19692;52.998;9.116;2023-08-21T08:28:56;24.40;99.90
33328;DHT22;19692;52.998;9.116;2023-08-21T08:31:22;24.60;99.90
33328;DHT22;19692;52.998;9.116;2023-08-21T08:33:50;24.50;99.90
33328;DHT22;19692;52.998;9.116;2023-08-21T08:36:16;24.20;99.90
33328;DHT22;19692;52.998;9.116;2023-08-21T08:38:41;24.40;99.90
33328;DHT22;19692;52.998;9.116;2023-08-21T08:43:59;24.90;99.90
33328;DHT22;19692;52.998;9.116;2023-08-21T08:46:29;25.00;99.90
33328;DHT22;19692;52.998;9.116;2023-08-21T08:48:56;25.00;99.90
33328;DHT22;19692;52.998;9.116;2023-08-21T08:51:28;25.10;99.90
33328;DHT22;19692;52.998;9.116;2023-08-21T08:53:58;25.20;99.90
33328;DHT22;19692;52.998;9.116;2023-08-21T08:56:24;25.50;99.90
33328;DHT22;19692;52.998;9.116;2023-08-21T08:58:51;25.70;99.90
33328;DHT22;19692;52.998;9.116;2023-08-21T09:01:16;25.90;99.90
33328;DHT22;19692;52.998;9.116;2023-08-21T09:03:42;25.70;99.90
33328;DHT22;19692;52.998;9.116;2023-08-21T09:06:08;25.90;99.90
33328;DHT22;19692;52.998;9.116;2023-08-21T09:08:34;26.10;99.90
33328;DHT22;19692;52.998;9.116;2023-08-21T09:11:03;26.20;99.90
33328;DHT22;19692;52.998;9.116;2023-08-21T09:13:31;26.10;99.90
33328;DHT22;19692;52.998;9.116;2023-08-21T09:15:57;26.00;99.90
33328;DHT22;19692;52.998;9.116;2023-08-21T09:18:24;25.80;99.90
33328;DHT22;19692;52.998;9.116;2023-08-21T09:20:49;25.50;99.90
33328;DHT22;19692;52.998;9.116;2023-08-21T09:23:16;25.50;99.90
33328;DHT22;19692;52.998;9.116;2023-08-21T09:25:45;25.70;99.90
33328;DHT22;19692;52.998;9.116;2023-08-21T09:28:13;25.80;99.90
33328;DHT22;19692;52.998;9.116;2023-08-21T09:30:47;25.90;99.90
33328;DHT22;19692;52.998;9.116;2023-08-21T09:33:20;26.20;99.90
33328;DHT22;19692;52.998;9.116;2023-08-21T09:35:47;26.30;99.90
33328;DHT22;19692;52.998;9.116;2023-08-21T09:38:14;26.60;99.90
33328;DHT22;19692;52.998;9.116;2023-08-21T09:40:41;26.90;99.90
33328;DHT22;19692;52.998;9.116;2023-08-21T09:43:09;27.10;99.90
33328;DHT22;19692;52.998;9.116;2023-08-21T09:45:38;26.90;99.90
33328;DHT22;19692;52.998;9.116;2023-08-21T09:48:04;27.20;99.90
33328;DHT22;19692;52.998;9.116;2023-08-21T09:50:31;27.20;99.90
33328;DHT22;19692;52.998;9.116;2023-08-21T09:52:58;27.50;99.90
33328;DHT22;19692;52.998;9.116;2023-08-21T09:55:24;27.60;99.90
33328;DHT22;19692;52.998;9.116;2023-08-21T09:57:58;27.70;99.90
33328;DHT22;19692;52.998;9.116;2023-08-21T10:00:35;27.80;99.90
33328;DHT22;19692;52.998;9.116;2023-08-21T10:03:07;27.90;99.90
33328;DHT22;19692;52.998;9.116;2023-08-21T10:05:34;28.00;99.90
33328;DHT22;19692;52.998;9.116;2023-08-21T10:08:03;28.30;99.90
33328;DHT22;19692;52.998;9.116;2023-08-21T10:10:35;28.60;99.90
33328;DHT22;19692;52.998;9.116;2023-08-21T10:13:03;28.70;99.90
33328;DHT22;19692;52.998;9.116;2023-08-21T10:15:31;28.70;99.90
33328;DHT22;19692;52.998;9.116;2023-08-21T10:18:18;28.70;99.90
33328;DHT22;19692;52.998;9.116;2023-08-21T10:20:45;28.90;99.90
33328;DHT22;19692;52.998;9.116;2023-08-21T10:23:27;28.70;99.90
33328;DHT22;19692;52.998;9.116;2023-08-21T10:26:01;29.20;99.90
33328;DHT22;19692;52.998;9.116;2023-08-21T10:28:52;29.40;99.90
33328;DHT22;19692;52.998;9.116;2023-08-21T10:31:26;29.80;99.90
33328;DHT22;19692;52.998;9.116;2023-08-21T10:33:55;30.10;99.90
33328;DHT22;19692;52.998;9.116;2023-08-21T10:41:53;30.70;99.90
33328;DHT22;19692;52.998;9.116;2023-08-21T10:44:47;30.60;99.90
33328;DHT22;19692;52.998;9.116;2023-08-21T10:47:23;30.50;99.90
33328;DHT22;19692;52.998;9.116;2023-08-21T10:50:03;30.40;99.50
33328;DHT22;19692;52.998;9.116;2023-08-21T10:52:41;30.40;99.90
33328;DHT22;19692;52.998;9.116;2023-08-21T10:55:12;30.70;99.80
33328;DHT22;19692;52.998;9.116;2023-08-21T10:57:39;30.70;99.60
33328;DHT22;19692;52.998;9.116;2023-08-21T11:00:12;30.90;98.80
33328;DHT22;19692;52.998;9.116;2023-08-21T11:02:45;30.90;98.50
33328;DHT22;19692;52.998;9.116;2023-08-21T11:05:13;30.60;97.60
33328;DHT22;19692;52.998;9.116;2023-08-21T11:07:46;30.20;99.90
33328;DHT22;19692;52.998;9.116;2023-08-21T11:10:15;30.20;97.50
33328;DHT22;19692;52.998;9.116;2023-08-21T11:13:06;30.40;98.50
33328;DHT22;19692;52.998;9.116;2023-08-21T11:15:31;30.60;98.70
33328;DHT22;19692;52.998;9.116;2023-08-21T11:17:59;30.20;98.80
33328;DHT22;19692;52.998;9.116;2023-08-21T11:20:33;30.20;98.50
33328;DHT22;19692;52.998;9.116;2023-08-21T11:23:00;30.10;98.80
33328;DHT22;19692;52.998;9.116;2023-08-21T11:25:35;30.10;99.10
33328;DHT22;19692;52.998;9.116;2023-08-21T11:28:04;29.80;99.10
33328;DHT22;19692;52.998;9.116;2023-08-21T11:30:31;30.00;98.50
33328;DHT22;19692;52.998;9.116;2023-08-21T11:33:08;29.90;98.50
33328;DHT22;19692;52.998;9.116;2023-08-21T11:35:36;29.90;99.20
33328;DHT22;19692;52.998;9.116;2023-08-21T11:38:03;29.90;99.30
33328;DHT22;19692;52.998;9.116;2023-08-21T11:40:29;30.00;98.50
33328;DHT22;19692;52.998;9.116;2023-08-21T11:43:00;29.90;97.80
33328;DHT22;19692;52.998;9.116;2023-08-21T11:45:26;30.00;98.10
33328;DHT22;19692;52.998;9.116;2023-08-21T11:47:55;30.00;97.50
33328;DHT22;19692;52.998;9.116;2023-08-21T11:50:21;30.10;96.80
33328;DHT22;19692;52.998;9.116;2023-08-21T11:52:51;30.10;96.70
33328;DHT22;19692;52.998;9.116;2023-08-21T11:55:17;30.20;96.40
33328;DHT22;19692;52.998;9.116;2023-08-21T11:57:51;29.90;95.50
33328;DHT22;19692;52.998;9.116;2023-08-21T12:00:17;30.00;96.20
33328;DHT22;19692;52.998;9.116;2023-08-21T12:02:58;30.00;96.30
33328;DHT22;19692;52.998;9.116;2023-08-21T12:05:26;30.50;95.20
33328;DHT22;19692;52.998;9.116;2023-08-21T12:07:54;30.60;94.40
33328;DHT22;19692;52.998;9.116;2023-08-21T12:10:28;30.90;94.80
33328;DHT22;19692;52.998;9.116;2023-08-21T12:12:55;30.70;94.00
33328;DHT22;19692;52.998;9.116;2023-08-21T12:15:22;30.30;94.30
33328;DHT22;19692;52.998;9.116;2023-08-21T12:17:48;30.10;94.40
33328;DHT22;19692;52.998;9.116;2023-08-21T12:20:13;30.20;96.10
33328;DHT22;19692;52.998;9.116;2023-08-21T12:22:40;30.10;94.80
33328;DHT22;19692;52.998;9.116;2023-08-21T12:25:08;30.10;94.60
33328;DHT22;19692;52.998;9.116;2023-08-21T12:27:34;30.20;94.60
33328;DHT22;19692;52.998;9.116;2023-08-21T12:30:00;30.50;94.90
33328;DHT22;19692;52.998;9.116;2023-08-21T12:32:26;30.80;95.20
33328;DHT22;19692;52.998;9.116;2023-08-21T12:34:52;31.00;93.50
33328;DHT22;19692;52.998;9.116;2023-08-21T12:37:18;31.30;92.20
33328;DHT22;19692;52.998;9.116;2023-08-21T12:39:44;31.30;93.60
33328;DHT22;19692;52.998;9.116;2023-08-21T12:42:09;31.50;92.60
33328;DHT22;19692;52.998;9.116;2023-08-21T12:44:35;31.50;91.30
33328;DHT22;19692;52.998;9.116;2023-08-21T12:47:01;31.80;90.40
33328;DHT22;19692;52.998;9.116;2023-08-21T12:49:27;32.00;89.70
33328;DHT22;19692;52.998;9.116;2023-08-21T12:51:53;32.00;90.30
33328;DHT22;19692;52.998;9.116;2023-08-21T12:54:19;32.10;88.50
33328;DHT22;19692;52.998;9.116;2023-08-21T12:56:45;31.40;82.70
33328;DHT22;19692;52.998;9.116;2023-08-21T12:59:11;30.90;86.40
33328;DHT22;19692;52.998;9.116;2023-08-21T13:01:38;30.30;89.40
33328;DHT22;19692;52.998;9.116;2023-08-21T13:04:04;30.10;90.30
33328;DHT22;19692;52.998;9.116;2023-08-21T13:06:29;29.80;90.40
33328;DHT22;19692;52.998;9.116;2023-08-21T13:08:55;29.70;92.00
33328;DHT22;19692;52.998;9.116;2023-08-21T13:11:21;29.30;90.80
33328;DHT22;19692;52.998;9.116;2023-08-21T13:13:49;29.20;90.90
33328;DHT22;19692;52.998;9.116;2023-08-21T13:16:15;28.90;92.00
33328;DHT22;19692;52.998;9.116;2023-08-21T13:18:41;28.90;91.60
33328;DHT22;19692;52.998;9.116;2023-08-21T13:21:08;29.00;92.10
33328;DHT22;19692;52.998;9.116;2023-08-21T13:23:33;29.00;92.40
33328;DHT22;19692;52.998;9.116;2023-08-21T13:26:00;29.00;92.40
33328;DHT22;19692;52.998;9.116;2023-08-21T13:28:27;28.90;93.10
33328;DHT22;19692;52.998;9.116;2023-08-21T13:30:53;28.80;93.20
33328;DHT22;19692;52.998;9.116;2023-08-21T13:33:18;28.90;93.30
33328;DHT22;19692;52.998;9.116;2023-08-21T13:35:45;28.80;93.10
33328;DHT22;19692;52.998;9.116;2023-08-21T13:38:12;29.00;93.80
33328;DHT22;19692;52.998;9.116;2023-08-21T13:40:38;29.40;93.90
33328;DHT22;19692;52.998;9.116;2023-08-21T13:43:06;29.80;93.10
33328;DHT22;19692;52.998;9.116;2023-08-21T13:45:33;30.10;91.30
33328;DHT22;19692;52.998;9.116;2023-08-21T13:47:59;30.30;90.90
33328;DHT22;19692;52.998;9.116;2023-08-21T13:50:24;30.40;91.00
33328;DHT22;19692;52.998;9.116;2023-08-21T13:52:50;30.70;90.90
33328;DHT22;19692;52.998;9.116;2023-08-21T13:55:16;31.10;90.00
33328;DHT22;19692;52.998;9.116;2023-08-21T13:57:43;31.00;87.10
33328;DHT22;19692;52.998;9.116;2023-08-21T14:00:10;31.00;88.50
33328;DHT22;19692;52.998;9.116;2023-08-21T14:02:42;30.90;91.00
33328;DHT22;19692;52.998;9.116;2023-08-21T14:05:09;31.10;89.20
33328;DHT22;19692;52.998;9.116;2023-08-21T14:07:36;31.20;90.00
33328;DHT22;19692;52.998;9.116;2023-08-21T14:10:03;31.40;88.40
33328;DHT22;19692;52.998;9.116;2023-08-21T14:12:30;31.30;87.60
33328;DHT22;19692;52.998;9.116;2023-08-21T14:14:57;31.40;89.30
33328;DHT22;19692;52.998;9.116;2023-08-21T14:17:24;31.00;88.10
33328;DHT22;19692;52.998;9.116;2023-08-21T14:19:50;31.00;87.00
33328;DHT22;19692;52.998;9.116;2023-08-21T14:22:16;31.10;88.70
33328;DHT22;19692;52.998;9.116;2023-08-21T14:24:42;31.10;86.00
33328;DHT22;19692;52.998;9.116;2023-08-21T14:27:07;31.20;83.80
33328;DHT22;19692;52.998;9.116;2023-08-21T14:29:33;31.40;81.80
33328;DHT22;19692;52.998;9.116;2023-08-21T14:31:59;31.30;82.90
33328;DHT22;19692;52.998;9.116;2023-08-21T14:34:26;31.30;82.30
33328;DHT22;19692;52.998;9.116;2023-08-21T14:36:53;31.10;81.10
33328;DHT22;19692;52.998;9.116;2023-08-21T14:39:22;30.90;79.80
33328;DHT22;19692;52.998;9.116;2023-08-21T14:41:56;31.00;81.70
33328;DHT22;19692;52.998;9.116;2023-08-21T14:44:23;31.00;81.70
33328;DHT22;19692;52.998;9.116;2023-08-21T14:46:51;31.00;82.10
33328;DHT22;19692;52.998;9.116;2023-08-21T14:49:17;31.10;81.00
33328;DHT22;19692;52.998;9.116;2023-08-21T14:51:43;30.90;79.60
33328;DHT22;19692;52.998;9.116;2023-08-21T14:54:09;30.80;81.10
33328;DHT22;19692;52.998;9.116;2023-08-21T14:56:35;30.50;81.20
33328;DHT22;19692;52.998;9.116;2023-08-21T14:59:01;30.20;82.90
33328;DHT22;19692;52.998;9.116;2023-08-21T15:01:27;30.00;85.70
33328;DHT22;19692;52.998;9.116;2023-08-21T15:03:53;30.20;85.70
33328;DHT22;19692;52.998;9.116;2023-08-21T15:06:19;30.60;85.10
33328;DHT22;19692;52.998;9.116;2023-08-21T15:08:45;31.00;84.00
33328;DHT22;19692;52.998;9.116;2023-08-21T15:11:10;31.10;85.60
33328;DHT22;19692;52.998;9.116;2023-08-21T15:13:40;31.10;84.50
33328;DHT22;19692;52.998;9.116;2023-08-21T15:16:06;30.90;87.90
33328;DHT22;19692;52.998;9.116;2023-08-21T15:18:32;30.90;88.10
33328;DHT22;19692;52.998;9.116;2023-08-21T15:20:58;30.60;89.20
33328;DHT22;19692;52.998;9.116;2023-08-21T15:23:25;30.50;89.80
33328;DHT22;19692;52.998;9.116;2023-08-21T15:25:51;30.40;88.10
33328;DHT22;19692;52.998;9.116;2023-08-21T15:28:17;30.10;89.30
33328;DHT22;19692;52.998;9.116;2023-08-21T15:30:42;29.50;89.60
33328;DHT22;19692;52.998;9.116;2023-08-21T15:33:09;29.10;90.30
33328;DHT22;19692;52.998;9.116;2023-08-21T15:35:34;28.60;91.30
33328;DHT22;19692;52.998;9.116;2023-08-21T15:38:00;28.40;91.60
33328;DHT22;19692;52.998;9.116;2023-08-21T15:40:26;28.10;91.50
33328;DHT22;19692;52.998;9.116;2023-08-21T15:42:52;28.00;91.40